SKBQ/BAQ METAR and TAF weather

Enter ICAO airport designator
Station Type Date Time Source
SKBQ METAR 2019/04/23 00:00 UTC NOAA

SKBQ 230000Z 36010KT 9999 SCT015 BKN070 27/23 A2984


Station Type Date Time Source
SKBQ Decoded METAR 2019/04/23 00:00 UTC NOAA

Barranquilla / Ernestocortissoz, Colombia (SKBQ) 10-53N 074-47W 30M
Apr 22, 2019 - 08:00 PM EDT / 2019.04.23 0000 UTC
Wind: from the N (360 degrees) at 12 MPH (10 KT):0
Visibility: greater than 7 mile(s):0
Sky conditions: mostly cloudy
Temperature: 80 F (27 C)
Dew Point: 73 F (23 C)
Relative Humidity: 78%
Pressure (altimeter): 29.84 in. Hg (1010 hPa)
ob: SKBQ 230000Z 36010KT 9999 SCT015 BKN070 27/23 A2984
cycle: 0

Station Type Date Time Source
SKBQ TAF 2019/04/22 18:47 UTC NOAA

TAF SKBQ 221630Z 2218/2318 01015KT 9999 SCT015 SCT090
TEMPO 2218/2221 7000 RADZ SCT015CB
TEMPO 2300/2302 SCT015CB
BECMG 2302/2304 VRB02KT
TEMPO 2309/2312 4000 BR SCT010 TX32/2217Z TN25/2311Z

Example: see airport list